createdAt,value
2022-12-09T00:00:10.622Z,6.23
2022-12-09T00:02:38.854Z,5.30
2022-12-09T00:05:07.572Z,4.80
2022-12-09T00:07:36.412Z,4.63
2022-12-09T00:10:06.738Z,4.43
2022-12-09T00:12:35.062Z,4.50
2022-12-09T00:15:02.964Z,4.50
2022-12-09T00:17:32.190Z,4.40
2022-12-09T00:20:00.265Z,4.57
2022-12-09T00:22:28.845Z,5.03
2022-12-09T00:24:56.789Z,6.53
2022-12-09T00:27:25.966Z,8.80
2022-12-09T00:29:53.994Z,11.27
2022-12-09T00:32:22.005Z,10.07
2022-12-09T00:34:49.947Z,9.03
2022-12-09T00:37:17.915Z,9.80
2022-12-09T00:39:45.934Z,8.87
2022-12-09T00:42:14.027Z,9.03
2022-12-09T00:44:43.208Z,7.83
2022-12-09T00:47:11.069Z,8.03
2022-12-09T00:49:39.019Z,8.10
2022-12-09T00:52:06.905Z,8.27
2022-12-09T00:54:34.859Z,8.50
2022-12-09T00:57:02.895Z,8.40
2022-12-09T00:59:30.827Z,8.77
2022-12-09T01:02:00.254Z,7.90
2022-12-09T01:04:28.436Z,8.33
2022-12-09T01:06:56.613Z,7.67
2022-12-09T01:09:24.629Z,6.73
2022-12-09T01:11:52.632Z,5.83
2022-12-09T01:14:20.440Z,4.97
2022-12-09T01:16:48.366Z,6.20
2022-12-09T01:19:17.822Z,5.63
2022-12-09T01:21:45.750Z,4.37
2022-12-09T01:24:14.846Z,4.93
2022-12-09T01:26:42.810Z,4.90
2022-12-09T01:29:10.962Z,5.60
2022-12-09T01:31:39.155Z,4.53
2022-12-09T01:34:07.006Z,5.60
2022-12-09T01:36:36.269Z,6.10
2022-12-09T01:39:04.295Z,5.20
2022-12-09T01:41:32.091Z,6.67
2022-12-09T01:44:15.759Z,7.10
2022-12-09T01:46:44.410Z,11.33
2022-12-09T01:49:16.058Z,11.57
2022-12-09T01:51:48.261Z,11.03
2022-12-09T01:54:16.934Z,11.37
2022-12-09T01:56:45.053Z,16.13
2022-12-09T01:59:16.504Z,11.13
2022-12-09T02:01:49.425Z,9.90
2022-12-09T02:04:17.903Z,9.30
2022-12-09T02:06:47.420Z,8.87
2022-12-09T02:09:15.358Z,8.17
2022-12-09T02:11:57.287Z,7.93
2022-12-09T02:14:30.856Z,7.93
2022-12-09T02:17:17.193Z,7.27
2022-12-09T02:19:54.047Z,6.30
2022-12-09T02:22:27.961Z,5.60
2022-12-09T02:25:00.142Z,6.20
2022-12-09T02:27:34.606Z,5.90
2022-12-09T02:30:12.304Z,6.37
2022-12-09T02:32:57.737Z,4.70
2022-12-09T02:35:33.085Z,5.07
2022-12-09T02:38:08.455Z,4.80
2022-12-09T02:40:43.762Z,4.33
2022-12-09T02:43:13.416Z,5.10
2022-12-09T02:45:44.074Z,5.27
2022-12-09T02:48:15.130Z,5.73
2022-12-09T02:50:46.387Z,6.10
2022-12-09T02:53:15.831Z,6.27
2022-12-09T02:55:46.125Z,6.90
2022-12-09T02:58:14.102Z,6.37
2022-12-09T03:00:42.669Z,6.80
2022-12-09T03:03:15.888Z,7.07
2022-12-09T03:05:52.994Z,6.03
2022-12-09T03:08:31.419Z,7.10
2022-12-09T03:11:01.796Z,6.43
2022-12-09T03:13:40.703Z,6.67
2022-12-09T03:16:15.300Z,6.93
2022-12-09T03:18:47.960Z,6.00
2022-12-09T03:21:22.706Z,6.00
2022-12-09T03:23:54.238Z,6.10
2022-12-09T03:26:26.351Z,6.37
2022-12-09T03:28:56.389Z,5.63
2022-12-09T03:31:28.185Z,5.90
2022-12-09T03:34:02.878Z,6.83
2022-12-09T03:36:36.155Z,6.87
2022-12-09T03:39:07.151Z,7.53
2022-12-09T03:41:35.672Z,7.10
2022-12-09T03:44:10.293Z,8.60
2022-12-09T03:46:38.664Z,7.83
2022-12-09T03:49:07.438Z,7.67
2022-12-09T03:51:41.080Z,8.27
2022-12-09T03:54:17.334Z,7.37
2022-12-09T03:56:48.734Z,7.37
2022-12-09T03:59:18.008Z,8.17
2022-12-09T04:01:47.153Z,7.60
2022-12-09T04:04:16.109Z,8.17
2022-12-09T04:06:45.535Z,8.03
2022-12-09T04:09:13.936Z,6.97
2022-12-09T04:11:41.832Z,7.30
2022-12-09T04:14:15.280Z,7.33
2022-12-09T04:16:43.648Z,6.37
2022-12-09T04:19:11.832Z,6.90
2022-12-09T04:21:39.881Z,6.03
2022-12-09T04:24:10.117Z,6.70
2022-12-09T04:26:39.028Z,6.57
2022-12-09T04:29:07.669Z,8.20
2022-12-09T04:31:35.892Z,7.27
2022-12-09T04:34:08.913Z,7.70
2022-12-09T04:36:37.425Z,7.93
2022-12-09T04:39:05.430Z,7.30
2022-12-09T04:41:34.694Z,6.67
2022-12-09T04:44:02.635Z,6.57
2022-12-09T04:46:30.486Z,7.27
2022-12-09T04:48:58.412Z,7.80
2022-12-09T04:51:26.166Z,7.10
2022-12-09T04:53:53.986Z,7.60
2022-12-09T04:56:22.522Z,7.83
2022-12-09T04:58:52.451Z,8.20
2022-12-09T05:01:28.478Z,8.40
2022-12-09T05:03:59.681Z,7.90
2022-12-09T05:06:28.355Z,8.10
2022-12-09T05:08:56.672Z,8.13
2022-12-09T05:11:25.033Z,7.63
2022-12-09T05:13:55.305Z,8.47
2022-12-09T05:16:24.032Z,8.43
2022-12-09T05:18:52.451Z,9.17
2022-12-09T05:21:21.914Z,8.47
2022-12-09T05:23:50.562Z,8.33
2022-12-09T05:26:20.706Z,9.60
2022-12-09T05:28:48.908Z,9.33
2022-12-09T05:31:20.057Z,7.73
2022-12-09T05:33:48.742Z,8.17
2022-12-09T05:36:19.056Z,7.70
2022-12-09T05:38:47.116Z,7.97
2022-12-09T05:41:15.341Z,8.00
2022-12-09T05:43:43.495Z,7.80
2022-12-09T05:46:12.296Z,8.97
2022-12-09T05:48:41.674Z,7.20
2022-12-09T05:51:13.109Z,8.23
2022-12-09T05:53:41.536Z,8.10
2022-12-09T05:56:09.823Z,8.80
2022-12-09T05:58:38.078Z,10.30
2022-12-09T06:01:07.114Z,8.93
2022-12-09T06:03:36.221Z,10.17
2022-12-09T06:06:08.555Z,9.10
2022-12-09T06:08:37.102Z,8.67
2022-12-09T06:11:05.757Z,7.60
2022-12-09T06:13:34.102Z,8.13
2022-12-09T06:16:04.714Z,8.23
2022-12-09T06:18:33.849Z,11.30
2022-12-09T06:21:08.232Z,10.00
2022-12-09T06:23:36.717Z,10.33
2022-12-09T06:26:05.681Z,8.40
2022-12-09T06:28:34.046Z,8.27
2022-12-09T06:31:02.075Z,7.40
2022-12-09T06:33:53.639Z,8.43
2022-12-09T06:36:19.766Z,8.23
2022-12-09T06:38:47.830Z,8.23
2022-12-09T06:41:17.120Z,11.47
2022-12-09T06:43:45.496Z,9.90
2022-12-09T06:46:15.455Z,8.93
2022-12-09T06:48:43.917Z,8.23
2022-12-09T06:51:12.248Z,10.73
2022-12-09T06:53:41.540Z,9.20
2022-12-09T06:56:12.317Z,8.77
2022-12-09T06:58:42.241Z,8.53
2022-12-09T07:01:13.819Z,9.30
2022-12-09T07:03:42.938Z,8.90
2022-12-09T07:06:21.926Z,12.47
2022-12-09T07:08:51.745Z,11.63
2022-12-09T07:11:20.124Z,8.53
2022-12-09T07:13:48.561Z,9.27
2022-12-09T07:16:16.579Z,8.50
2022-12-09T07:18:45.404Z,8.13
2022-12-09T07:21:16.875Z,9.60
2022-12-09T07:23:45.448Z,8.83
2022-12-09T07:26:15.730Z,8.10
2022-12-09T07:28:44.393Z,8.67
2022-12-09T07:31:19.568Z,7.93
2022-12-09T07:33:48.483Z,8.13
2022-12-09T07:36:21.070Z,8.23
2022-12-09T07:38:50.236Z,9.53
2022-12-09T07:41:19.843Z,9.63
2022-12-09T07:43:48.954Z,10.30
2022-12-09T07:46:19.124Z,9.43
2022-12-09T07:48:48.281Z,9.73
2022-12-09T07:51:17.031Z,9.27
2022-12-09T07:53:45.312Z,10.23
2022-12-09T07:56:15.711Z,10.23
2022-12-09T07:58:47.836Z,10.23
2022-12-09T08:01:19.697Z,10.37
2022-12-09T08:03:49.061Z,10.63
2022-12-09T08:06:19.768Z,9.77
2022-12-09T08:08:48.375Z,9.03
2022-12-09T08:11:18.735Z,9.67
2022-12-09T08:13:48.399Z,9.33
2022-12-09T08:16:19.855Z,10.23
2022-12-09T08:18:49.018Z,9.17
2022-12-09T08:21:19.625Z,10.50
2022-12-09T08:23:47.953Z,10.87
2022-12-09T08:26:17.752Z,9.57
2022-12-09T08:28:47.027Z,8.60
2022-12-09T08:31:17.748Z,8.80
2022-12-09T08:33:46.586Z,10.23
2022-12-09T08:36:16.611Z,9.27
2022-12-09T08:38:45.548Z,9.63
2022-12-09T08:41:15.568Z,10.00
2022-12-09T08:43:44.972Z,8.83
2022-12-09T08:46:15.441Z,9.60
2022-12-09T08:48:43.971Z,9.93
2022-12-09T08:51:13.245Z,9.27
2022-12-09T08:53:41.575Z,9.13
2022-12-09T08:56:11.850Z,14.63
2022-12-09T08:58:41.074Z,10.63
2022-12-09T09:01:14.954Z,46.67
2022-12-09T09:03:45.024Z,14.37
2022-12-09T09:06:14.298Z,22.73
2022-12-09T09:08:43.421Z,24.33
2022-12-09T09:11:12.390Z,15.83
2022-12-09T09:13:41.550Z,12.40
2022-12-09T09:16:12.426Z,12.63
2022-12-09T09:18:41.200Z,11.63
2022-12-09T09:21:12.484Z,10.93
2022-12-09T09:23:41.419Z,8.83
2022-12-09T09:26:10.972Z,8.57
2022-12-09T09:28:39.273Z,9.03
2022-12-09T09:31:10.100Z,8.77
2022-12-09T09:33:38.287Z,9.60
2022-12-09T09:36:10.625Z,11.60
2022-12-09T09:38:40.965Z,9.37
2022-12-09T09:41:26.334Z,9.63
2022-12-09T09:43:55.535Z,9.33
2022-12-09T09:46:32.552Z,9.27
2022-12-09T09:49:02.311Z,9.27
2022-12-09T09:51:33.015Z,9.53
2022-12-09T09:54:08.182Z,8.50
2022-12-09T09:56:41.156Z,9.17
2022-12-09T09:59:20.502Z,8.23
2022-12-09T10:01:56.015Z,9.97
2022-12-09T10:04:32.510Z,10.47
2022-12-09T10:07:08.667Z,10.70
2022-12-09T10:09:46.863Z,10.73
2022-12-09T10:12:24.508Z,9.73
2022-12-09T10:14:58.944Z,9.17
2022-12-09T10:17:30.282Z,8.50
2022-12-09T10:20:03.816Z,9.13
2022-12-09T10:22:42.475Z,9.37
2022-12-09T10:25:21.206Z,9.53
2022-12-09T10:27:54.734Z,10.73
2022-12-09T10:30:23.325Z,30.80
2022-12-09T10:32:51.658Z,12.00
2022-12-09T10:35:21.733Z,12.80
2022-12-09T10:37:52.513Z,23.83
2022-12-09T10:40:30.976Z,11.37
2022-12-09T10:43:17.691Z,12.20
2022-12-09T10:48:38.764Z,10.97
2022-12-09T10:51:14.136Z,9.20
2022-12-09T10:53:48.723Z,8.63
2022-12-09T10:56:23.697Z,8.60
2022-12-09T10:59:10.621Z,9.47
2022-12-09T11:01:50.687Z,9.27
2022-12-09T11:04:25.134Z,9.80
2022-12-09T11:06:59.324Z,9.37
2022-12-09T11:09:31.012Z,9.80
2022-12-09T11:12:01.199Z,9.40
2022-12-09T11:14:34.954Z,9.97
2022-12-09T11:17:14.546Z,9.30
2022-12-09T11:19:47.058Z,10.53
2022-12-09T11:22:38.287Z,9.47
2022-12-09T11:25:21.885Z,9.67
2022-12-09T11:27:54.563Z,10.37
2022-12-09T11:30:25.525Z,9.40
2022-12-09T11:32:58.712Z,12.30
2022-12-09T11:35:32.422Z,10.87
2022-12-09T11:38:04.229Z,9.87
2022-12-09T11:40:33.503Z,10.00
2022-12-09T11:43:03.405Z,10.47
2022-12-09T11:45:34.485Z,15.07
2022-12-09T11:48:31.954Z,10.23
2022-12-09T11:50:57.973Z,11.07
2022-12-09T11:53:29.414Z,11.90
2022-12-09T11:56:03.989Z,13.63
2022-12-09T11:58:39.882Z,18.37
2022-12-09T12:01:14.031Z,10.60
2022-12-09T12:03:47.781Z,12.93
2022-12-09T12:06:20.444Z,10.80
2022-12-09T12:08:52.596Z,9.80
2022-12-09T12:11:29.025Z,11.13
2022-12-09T12:14:04.877Z,11.10
2022-12-09T12:16:39.936Z,11.13
2022-12-09T12:19:16.362Z,11.40
2022-12-09T12:22:10.256Z,12.10
2022-12-09T12:25:03.972Z,11.73
2022-12-09T12:27:46.444Z,10.37
2022-12-09T12:30:19.251Z,10.60
2022-12-09T12:33:53.431Z,12.37
2022-12-09T12:36:11.320Z,10.40
2022-12-09T12:38:54.160Z,9.37
2022-12-09T12:41:29.909Z,12.93
2022-12-09T12:44:28.575Z,12.73
2022-12-09T12:47:05.865Z,10.23
2022-12-09T12:49:55.460Z,10.50
2022-12-09T12:52:55.503Z,12.53
2022-12-09T12:55:41.011Z,9.70
2022-12-09T12:58:15.347Z,10.47
2022-12-09T13:00:58.599Z,9.43
2022-12-09T13:03:35.041Z,11.77
2022-12-09T13:06:03.889Z,10.37
2022-12-09T13:08:38.169Z,9.60
2022-12-09T13:11:10.212Z,10.17
2022-12-09T13:13:43.167Z,9.87
2022-12-09T13:16:19.359Z,10.00
2022-12-09T13:18:50.242Z,8.93
2022-12-09T13:21:18.670Z,9.70
2022-12-09T13:23:59.653Z,9.13
2022-12-09T13:26:44.124Z,9.60
2022-12-09T13:29:25.879Z,10.07
2022-12-09T13:32:00.154Z,9.57
2022-12-09T13:34:37.713Z,10.73
2022-12-09T13:37:06.081Z,11.27
2022-12-09T13:39:56.588Z,10.57
2022-12-09T13:43:01.411Z,11.17
2022-12-09T13:45:35.226Z,10.57
2022-12-09T13:48:28.830Z,11.33
2022-12-09T13:51:00.143Z,14.73
2022-12-09T13:53:33.654Z,13.23
2022-12-09T13:56:04.132Z,13.63
2022-12-09T13:58:56.686Z,11.97
2022-12-09T14:01:31.159Z,11.13
2022-12-09T14:04:07.852Z,11.30
2022-12-09T14:06:48.941Z,11.90
2022-12-09T14:09:28.498Z,11.40
2022-12-09T14:12:00.175Z,10.73
2022-12-09T14:14:58.898Z,12.00
2022-12-09T14:18:04.108Z,11.30
2022-12-09T14:20:38.980Z,12.73
2022-12-09T14:23:17.816Z,13.30
2022-12-09T14:25:55.714Z,12.63
2022-12-09T14:28:40.584Z,12.50
2022-12-09T14:31:09.344Z,13.03
2022-12-09T14:33:39.284Z,10.63
2022-12-09T14:36:20.679Z,11.57
2022-12-09T14:41:50.810Z,12.53
2022-12-09T14:44:27.121Z,12.10
2022-12-09T14:47:15.100Z,12.73
2022-12-09T14:49:49.161Z,13.37
2022-12-09T14:52:24.648Z,13.00
2022-12-09T14:54:55.502Z,11.63
2022-12-09T14:57:27.094Z,13.77
2022-12-09T14:59:57.137Z,15.67
2022-12-09T15:06:02.985Z,11.60
2022-12-09T15:08:33.400Z,11.27
2022-12-09T15:11:06.887Z,10.80
2022-12-09T15:13:37.332Z,11.00
2022-12-09T15:16:09.747Z,11.67
2022-12-09T15:18:40.182Z,12.20
2022-12-09T15:21:08.611Z,11.33
2022-12-09T15:23:39.006Z,11.67
2022-12-09T15:26:19.400Z,11.30
2022-12-09T15:28:50.149Z,12.27
2022-12-09T15:31:21.401Z,13.10
2022-12-09T15:33:50.471Z,13.57
2022-12-09T15:36:23.269Z,12.57
2022-12-09T15:38:54.584Z,12.70
2022-12-09T15:41:43.098Z,13.27
2022-12-09T15:44:14.423Z,12.13
2022-12-09T15:46:44.819Z,13.60
2022-12-09T15:49:17.458Z,11.57
2022-12-09T15:51:47.486Z,12.27
2022-12-09T15:54:20.367Z,12.80
2022-12-09T15:56:54.978Z,11.80
2022-12-09T15:59:28.413Z,12.47
2022-12-09T16:01:59.346Z,11.13
2022-12-09T16:04:30.694Z,11.77
2022-12-09T16:07:05.856Z,11.57
2022-12-09T16:09:33.716Z,10.43
2022-12-09T16:12:03.008Z,11.73
2022-12-09T16:14:43.810Z,11.97
2022-12-09T16:17:22.223Z,11.83
2022-12-09T16:19:50.120Z,13.37
2022-12-09T16:22:22.512Z,17.07
2022-12-09T16:27:46.177Z,16.47
2022-12-09T16:30:16.486Z,14.57
2022-12-09T16:32:46.219Z,15.23
2022-12-09T16:35:21.419Z,17.83
2022-12-09T16:38:17.251Z,18.27
2022-12-09T16:41:10.727Z,16.10
2022-12-09T16:43:57.440Z,15.20
2022-12-09T16:46:37.284Z,16.50
2022-12-09T16:49:05.367Z,16.40
2022-12-09T16:51:33.726Z,15.60
2022-12-09T16:54:02.151Z,16.10
2022-12-09T16:56:31.479Z,14.90
2022-12-09T16:59:00.747Z,14.10
2022-12-09T17:01:33.799Z,14.60
2022-12-09T17:04:05.154Z,13.67
2022-12-09T17:06:33.391Z,16.37
2022-12-09T17:09:01.224Z,14.03
2022-12-09T17:11:29.064Z,13.37
2022-12-09T17:13:56.943Z,13.10
2022-12-09T17:16:26.814Z,15.20
2022-12-09T17:18:54.910Z,13.03
2022-12-09T17:21:22.804Z,12.33
2022-12-09T17:23:50.810Z,12.30
2022-12-09T17:26:20.342Z,13.73
2022-12-09T17:28:49.179Z,14.03
2022-12-09T17:31:19.593Z,13.90
2022-12-09T17:33:49.122Z,13.90
2022-12-09T17:36:18.653Z,13.43
2022-12-09T17:38:46.540Z,13.90
2022-12-09T17:41:19.016Z,12.73
2022-12-09T17:43:47.242Z,15.07
2022-12-09T17:46:15.954Z,14.13
2022-12-09T17:48:43.841Z,13.30
2022-12-09T17:51:14.831Z,16.07
2022-12-09T17:53:43.603Z,20.47
2022-12-09T17:56:13.754Z,17.70
2022-12-09T17:58:42.026Z,16.90
2022-12-09T18:01:14.806Z,14.47
2022-12-09T18:04:01.588Z,16.80
2022-12-09T18:06:34.327Z,17.97
2022-12-09T18:09:03.190Z,16.83
2022-12-09T18:11:31.083Z,16.00
2022-12-09T18:13:59.170Z,16.70
2022-12-09T18:16:27.344Z,16.77
2022-12-09T18:18:55.278Z,17.00
2022-12-09T18:21:23.712Z,16.80
2022-12-09T18:23:52.911Z,17.57
2022-12-09T18:26:23.528Z,16.47
2022-12-09T18:28:56.336Z,14.90
2022-12-09T18:31:25.541Z,15.13
2022-12-09T18:33:53.603Z,21.07
2022-12-09T18:36:23.622Z,16.57
2022-12-09T18:38:53.808Z,15.37
2022-12-09T18:41:23.936Z,15.73
2022-12-09T18:43:54.004Z,14.70
2022-12-09T18:46:25.783Z,17.37
2022-12-09T18:48:57.543Z,17.23
2022-12-09T18:51:25.962Z,18.73
2022-12-09T18:53:55.667Z,17.70
2022-12-09T18:56:23.469Z,18.10
2022-12-09T18:59:06.396Z,18.67
2022-12-09T19:01:38.712Z,17.47
2022-12-09T19:04:11.479Z,16.97
2022-12-09T19:06:41.270Z,16.37
2022-12-09T19:09:12.107Z,17.57
2022-12-09T19:11:41.501Z,17.10
2022-12-09T19:14:09.993Z,17.50
2022-12-09T19:16:38.413Z,16.83
2022-12-09T19:19:09.936Z,17.90
2022-12-09T19:21:39.210Z,17.93
2022-12-09T19:24:08.165Z,18.17
2022-12-09T19:26:37.883Z,19.00
2022-12-09T19:29:08.615Z,24.40
2022-12-09T19:31:38.063Z,24.13
2022-12-09T19:34:08.396Z,18.17
2022-12-09T19:36:36.607Z,15.67
2022-12-09T19:39:08.195Z,19.13
2022-12-09T19:41:38.366Z,18.77
2022-12-09T19:44:06.895Z,17.17
2022-12-09T19:46:35.300Z,17.90
2022-12-09T19:49:03.597Z,14.57
2022-12-09T19:51:32.156Z,14.70
2022-12-09T19:54:01.735Z,16.03
2022-12-09T19:56:29.935Z,15.03
2022-12-09T19:59:00.067Z,16.60
2022-12-09T20:01:29.761Z,15.20
2022-12-09T20:04:08.824Z,15.77
2022-12-09T20:06:47.501Z,15.40
2022-12-09T20:09:19.240Z,15.43
2022-12-09T20:11:47.061Z,14.53
2022-12-09T20:14:16.280Z,14.47
2022-12-09T20:16:44.127Z,15.57
2022-12-09T20:19:12.083Z,14.73
2022-12-09T20:21:40.568Z,14.50
2022-12-09T20:24:10.291Z,14.90
2022-12-09T20:26:39.226Z,14.67
2022-12-09T20:29:10.468Z,15.03
2022-12-09T20:31:40.588Z,14.30
2022-12-09T20:34:12.671Z,13.77
2022-12-09T20:36:42.932Z,14.73
2022-12-09T20:39:15.132Z,14.33
2022-12-09T20:41:44.415Z,16.17
2022-12-09T20:44:13.426Z,17.53
2022-12-09T20:46:46.791Z,17.37
2022-12-09T20:49:14.643Z,16.07
2022-12-09T20:51:45.180Z,14.93
2022-12-09T20:54:13.676Z,16.70
2022-12-09T20:56:41.987Z,17.93
2022-12-09T20:59:11.156Z,21.57
2022-12-09T21:01:39.737Z,17.77
2022-12-09T21:04:09.083Z,18.93
2022-12-09T21:06:38.636Z,17.33
2022-12-09T21:09:08.443Z,15.57
2022-12-09T21:11:36.689Z,16.07
2022-12-09T21:14:07.091Z,16.63
2022-12-09T21:16:36.613Z,16.83
2022-12-09T21:19:07.306Z,16.57
2022-12-09T21:21:37.682Z,15.90
2022-12-09T21:24:06.468Z,15.50
2022-12-09T21:26:34.306Z,15.80
2022-12-09T21:29:02.744Z,15.80
2022-12-09T21:31:32.591Z,14.83
2022-12-09T21:34:03.455Z,15.27
2022-12-09T21:36:33.290Z,15.00
2022-12-09T21:39:03.109Z,14.13
2022-12-09T21:41:33.580Z,14.77
2022-12-09T21:44:01.925Z,15.53
2022-12-09T21:46:31.998Z,14.70
2022-12-09T21:49:04.050Z,16.10
2022-12-09T21:51:32.524Z,15.60
2022-12-09T21:54:02.299Z,15.97
2022-12-09T21:56:32.655Z,15.30
2022-12-09T21:59:01.094Z,15.53
2022-12-09T22:01:31.051Z,17.57
2022-12-09T22:04:00.363Z,16.03
2022-12-09T22:06:28.547Z,15.53
2022-12-09T22:08:56.668Z,14.33
2022-12-09T22:11:27.781Z,17.20
2022-12-09T22:13:57.496Z,15.37
2022-12-09T22:16:28.209Z,15.27
2022-12-09T22:18:58.330Z,16.37
2022-12-09T22:21:28.649Z,16.27
2022-12-09T22:23:59.459Z,15.80
2022-12-09T22:26:29.549Z,14.97
2022-12-09T22:28:59.414Z,16.47
2022-12-09T22:31:29.099Z,16.43
2022-12-09T22:34:00.600Z,16.00
2022-12-09T22:36:29.127Z,16.07
2022-12-09T22:38:57.077Z,15.90
2022-12-09T22:41:27.009Z,16.10
2022-12-09T22:43:57.030Z,15.97
2022-12-09T22:46:27.579Z,16.37
2022-12-09T22:48:56.715Z,15.93
2022-12-09T22:51:26.390Z,16.97
2022-12-09T22:53:55.582Z,16.20
2022-12-09T22:56:24.185Z,18.27
2022-12-09T22:58:52.725Z,19.03
2022-12-09T23:01:23.677Z,19.50
2022-12-09T23:03:51.554Z,19.63
2022-12-09T23:06:19.785Z,26.33
2022-12-09T23:08:47.898Z,24.57
2022-12-09T23:11:18.324Z,20.07
2022-12-09T23:13:46.823Z,17.73
2022-12-09T23:16:17.314Z,17.07
2022-12-09T23:18:46.895Z,15.60
2022-12-09T23:21:20.450Z,17.27
2022-12-09T23:23:48.607Z,15.63
2022-12-09T23:26:18.008Z,15.73
2022-12-09T23:28:47.411Z,16.67
2022-12-09T23:31:17.783Z,16.03
2022-12-09T23:33:48.325Z,16.60
2022-12-09T23:36:18.996Z,16.10
2022-12-09T23:38:48.216Z,15.60
2022-12-09T23:41:18.323Z,16.23
2022-12-09T23:43:47.573Z,16.87
2022-12-09T23:46:17.705Z,16.30
2022-12-09T23:48:49.332Z,16.53
2022-12-09T23:51:19.543Z,16.40
2022-12-09T23:53:49.380Z,15.83
2022-12-09T23:56:19.339Z,15.73
2022-12-09T23:58:48.178Z,16.33
